Wetterdaten: Woche 12.09.11 - 18.09.11 (KW37)
Datum Zeit Temp. A. Feuchte A. Luftdruck Regen Wind Richtung Taupunkt Windchill Windben
12.09.2011 00:00 18,4 C 81 % 1008,7 hPa 0,0 l/m 0,0 km/h N 15,0 C 18,4 C 0,8 km/h
12.09.2011 01:00 18,1 C 80 % 1008,7 hPa 0,0 l/m 0,0 km/h S-SO 14,6 C 18,1 C 0,0 km/h
12.09.2011 02:00 19,8 C 79 % 1009,2 hPa 0,0 l/m 4,4 km/h S-SO 16,0 C 19,7 C 20,9 km/h
12.09.2011 03:00 22,6 C 66 % 1009,3 hPa 0,0 l/m 9,0 km/h NW 15,8 C 21,8 C 28,2 km/h
12.09.2011 04:00 22,3 C 67 % 1010,5 hPa 0,0 l/m 7,9 km/h W-NW 15,8 C 21,8 C 26,5 km/h
12.09.2011 05:00 21,3 C 71 % 1011,1 hPa 0,0 l/m 6,0 km/h N-NO 15,7 C 21,1 C 19,7 km/h
12.09.2011 06:00 20,9 C 70 % 1011,8 hPa 0,0 l/m 4,8 km/h NW 15,2 C 20,9 C 19,7 km/h
12.09.2011 07:00 20,9 C 69 % 1012,5 hPa 0,0 l/m 4,6 km/h NW 15,0 C 20,9 C 15,3 km/h
12.09.2011 08:00 21,1 C 70 % 1013,4 hPa 0,0 l/m 5,6 km/h N-NW 15,5 C 21,1 C 18,1 km/h
12.09.2011 09:00 22,2 C 69 % 1014,0 hPa 0,0 l/m 6,8 km/h NW 16,2 C 22,0 C 23,3 km/h
12.09.2011 10:00 22,8 C 65 % 1014,7 hPa 0,0 l/m 5,4 km/h NW 15,7 C 22,8 C 19,7 km/h
12.09.2011 11:00 22,9 C 65 % 1015,0 hPa 0,0 l/m 3,3 km/h N-NW 15,9 C 22,9 C 16,1 km/h
12.09.2011 12:00 24,1 C 60 % 1015,0 hPa 0,0 l/m 3,9 km/h SW 15,9 C 24,1 C 16,9 km/h
12.09.2011 13:00 24,5 C 58 % 1015,2 hPa 0,0 l/m 4,3 km/h S-SW 15,6 C 24,5 C 21,7 km/h
12.09.2011 14:00 25,4 C 55 % 1014,9 hPa 0,0 l/m 3,9 km/h W-NW 15,8 C 25,4 C 19,3 km/h
12.09.2011 15:00 25,4 C 53 % 1014,4 hPa 0,0 l/m 5,9 km/h S-SW 15,1 C 25,3 C 22,1 km/h
12.09.2011 16:00 25,0 C 51 % 1014,0 hPa 0,0 l/m 5,8 km/h NW 14,3 C 25,1 C 19,7 km/h
12.09.2011 17:00 24,6 C 52 % 1013,9 hPa 0,0 l/m 4,4 km/h S 14,0 C 24,6 C 20,1 km/h
12.09.2011 18:00 23,9 C 55 % 1013,8 hPa 0,0 l/m 2,2 km/h S-SW 14,3 C 23,9 C 13,3 km/h
12.09.2011 19:00 22,7 C 59 % 1014,0 hPa 0,0 l/m 0,6 km/h N 14,2 C 22,7 C 5,6 km/h
12.09.2011 20:00 21,5 C 63 % 1014,7 hPa 0,0 l/m 0,3 km/h N 14,1 C 21,5 C 3,6 km/h
12.09.2011 21:00 19,3 C 71 % 1014,8 hPa 0,0 l/m 0,0 km/h N 13,9 C 19,3 C 0,4 km/h
12.09.2011 22:00 17,6 C 76 % 1015,2 hPa 0,0 l/m 0,2 km/h N 13,3 C 17,6 C 2,0 km/h
12.09.2011 23:00 17,3 C 78 % 1015,3 hPa 0,0 l/m 0,1 km/h N 13,4 C 17,3 C 3,2 km/h
13.09.2011 00:00 16,8 C 78 % 1015,3 hPa 0,0 l/m 0,0 km/h N 13,0 C 16,8 C 1,2 km/h
13.09.2011 01:00 15,8 C 80 % 1015,4 hPa 0,0 l/m 0,0 km/h N 12,3 C 15,8 C 0,4 km/h
13.09.2011 02:00 15,4 C 82 % 1015,4 hPa 0,0 l/m 0,1 km/h N 12,2 C 15,4 C 2,8 km/h
13.09.2011 03:00 15,0 C 82 % 1015,5 hPa 0,0 l/m 0,0 km/h N 12,0 C 15,0 C 0,8 km/h
13.09.2011 04:00 14,5 C 82 % 1015,4 hPa 0,0 l/m 0,0 km/h N 11,5 C 14,5 C 1,6 km/h
13.09.2011 05:00 14,2 C 82 % 1015,8 hPa 0,0 l/m 0,0 km/h N 11,1 C 14,2 C 1,6 km/h
13.09.2011 06:00 13,6 C 82 % 1016,1 hPa 0,0 l/m 0,0 km/h N 10,6 C 13,6 C 0,0 km/h
13.09.2011 07:00 13,5 C 82 % 1016,3 hPa 0,0 l/m 0,0 km/h N 10,4 C 13,5 C 1,6 km/h
13.09.2011 08:00 15,2 C 80 % 1016,5 hPa 0,0 l/m 0,0 km/h S 11,7 C 15,2 C 4,8 km/h
13.09.2011 09:00 19,0 C 68 % 1016,5 hPa 0,0 l/m 2,4 km/h SW 12,9 C 19,0 C 9,6 km/h
13.09.2011 10:00 22,5 C 53 % 1016,2 hPa 0,0 l/m 4,0 km/h S 12,3 C 22,5 C 16,1 km/h
13.09.2011 11:00 24,4 C 48 % 1015,4 hPa 0,0 l/m 2,4 km/h W-SW 12,6 C 24,4 C 14,5 km/h
13.09.2011 12:00 25,9 C 45 % 1014,7 hPa 0,0 l/m 1,6 km/h S 12,9 C 25,9 C 12,9 km/h
13.09.2011 13:00 27,5 C 40 % 1014,1 hPa 0,0 l/m 1,6 km/h S-SW 12,4 C 27,5 C 10,5 km/h
13.09.2011 14:00 28,1 C 40 % 1013,1 hPa 0,0 l/m 1,6 km/h S-SW 13,1 C 28,1 C 11,3 km/h
13.09.2011 15:00 28,4 C 43 % 1012,2 hPa 0,0 l/m 0,8 km/h NO 14,6 C 28,4 C 6,4 km/h
13.09.2011 16:00 28,5 C 42 % 1011,4 hPa 0,0 l/m 1,6 km/h S 14,1 C 28,5 C 6,4 km/h
13.09.2011 17:00 28,5 C 41 % 1011,0 hPa 0,0 l/m 1,6 km/h SW 13,7 C 28,5 C 7,2 km/h
13.09.2011 18:00 27,5 C 47 % 1011,2 hPa 0,0 l/m 1,6 km/h NW 15,2 C 27,5 C 5,6 km/h
13.09.2011 19:00 25,5 C 51 % 1011,5 hPa 0,0 l/m 0,8 km/h N 14,6 C 25,5 C 8,0 km/h
13.09.2011 20:00 23,8 C 57 % 1012,2 hPa 0,0 l/m 0,8 km/h S 14,6 C 23,8 C 8,9 km/h
13.09.2011 21:00 22,9 C 60 % 1012,7 hPa 0,0 l/m 1,6 km/h S-SW 14,7 C 22,9 C 14,5 km/h
13.09.2011 22:00 23,0 C 59 % 1013,0 hPa 0,0 l/m 2,4 km/h S-SW 14,5 C 23,0 C 16,9 km/h
13.09.2011 23:00 23,0 C 60 % 1013,3 hPa 0,0 l/m 0,8 km/h N 14,8 C 23,0 C 12,9 km/h
14.09.2011 00:00 22,6 C 62 % 1013,5 hPa 0,0 l/m 0,8 km/h S-SW 14,8 C 22,6 C 10,4 km/h
14.09.2011 01:00 22,5 C 63 % 1013,4 hPa 0,0 l/m 0,8 km/h SW 14,9 C 22,5 C 8,1 km/h
14.09.2011 02:00 22,3 C 63 % 1013,2 hPa 0,0 l/m 1,6 km/h W-SW 14,9 C 22,3 C 12,9 km/h
14.09.2011 03:00 21,3 C 66 % 1013,0 hPa 0,0 l/m 0,0 km/h N 14,7 C 21,3 C 3,2 km/h
14.09.2011 04:00 19,3 C 72 % 1013,2 hPa 0,0 l/m 0,0 km/h N 14,2 C 19,3 C 2,4 km/h
14.09.2011 05:00 18,0 C 78 % 1013,1 hPa 0,0 l/m 0,0 km/h N 14,0 C 18,0 C 1,6 km/h
14.09.2011 06:00 17,3 C 80 % 1013,3 hPa 0,0 l/m 0,0 km/h N 13,7 C 17,3 C 1,6 km/h
14.09.2011 07:00 17,4 C 81 % 1014,1 hPa 0,0 l/m 0,0 km/h N 14,1 C 17,4 C 1,1 km/h
14.09.2011 08:00 18,9 C 79 % 1014,2 hPa 0,0 l/m 0,3 km/h N 15,1 C 18,9 C 2,4 km/h
14.09.2011 09:00 21,2 C 71 % 1014,2 hPa 0,0 l/m 0,4 km/h N-NO 15,6 C 21,2 C 3,2 km/h
14.09.2011 10:00 23,1 C 65 % 1014,1 hPa 0,0 l/m 1,1 km/h N-NO 16,1 C 23,1 C 6,0 km/h
14.09.2011 11:00 24,1 C 61 % 1014,0 hPa 0,0 l/m 1,4 km/h S-SW 16,1 C 24,1 C 8,4 km/h
14.09.2011 12:00 25,4 C 59 % 1014,0 hPa 0,0 l/m 0,6 km/h N 16,7 C 25,4 C 5,2 km/h
14.09.2011 13:00 22,9 C 65 % 1015,0 hPa 1,8 l/m 5,8 km/h N-NW 15,9 C 22,2 C 16,1 km/h
14.09.2011 14:00 18,0 C 78 % 1016,5 hPa 0,3 l/m 4,8 km/h N-NW 14,1 C 17,9 C 15,3 km/h
14.09.2011 15:00 17,0 C 80 % 1017,2 hPa 0,0 l/m 5,9 km/h NW 13,4 C 16,9 C 14,5 km/h
14.09.2011 16:00 17,0 C 79 % 1017,6 hPa 0,0 l/m 2,6 km/h NW 13,3 C 17,0 C 8,0 km/h
14.09.2011 17:00 16,9 C 76 % 1017,7 hPa 0,0 l/m 3,2 km/h W-SW 12,6 C 16,9 C 10,1 km/h
14.09.2011 18:00 15,9 C 73 % 1018,0 hPa 1,0 l/m 2,7 km/h W 11,0 C 15,9 C 11,7 km/h
14.09.2011 19:00 14,6 C 80 % 1017,8 hPa 0,3 l/m 1,3 km/h S-SW 11,1 C 14,6 C 7,6 km/h
14.09.2011 20:00 14,3 C 81 % 1018,0 hPa 0,0 l/m 1,2 km/h W-NW 11,0 C 14,3 C 6,0 km/h
14.09.2011 21:00 14,6 C 80 % 1018,5 hPa 0,0 l/m 0,2 km/h N 11,2 C 14,6 C 2,8 km/h
14.09.2011 22:00 14,4 C 81 % 1018,5 hPa 0,0 l/m 0,4 km/h S-SW 11,1 C 14,4 C 6,4 km/h
14.09.2011 23:00 14,9 C 76 % 1018,6 hPa 0,0 l/m 1,6 km/h W 10,7 C 14,9 C 10,5 km/h
15.09.2011 00:00 15,0 C 75 % 1018,4 hPa 0,0 l/m 1,1 km/h O-NO 10,6 C 15,0 C 7,2 km/h
15.09.2011 01:00 15,0 C 76 % 1018,6 hPa 0,0 l/m 0,9 km/h N 10,7 C 15,0 C 5,2 km/h
15.09.2011 02:00 14,9 C 77 % 1018,7 hPa 0,0 l/m 0,6 km/h SW 10,9 C 14,9 C 8,0 km/h
15.09.2011 03:00 14,9 C 76 % 1018,7 hPa 0,0 l/m 1,2 km/h W-NW 10,6 C 14,9 C 10,1 km/h
15.09.2011 04:00 14,8 C 76 % 1018,8 hPa 0,0 l/m 0,7 km/h N 10,7 C 14,8 C 3,6 km/h
15.09.2011 05:00 14,1 C 78 % 1018,9 hPa 0,0 l/m 0,1 km/h N 10,3 C 14,1 C 1,6 km/h
15.09.2011 06:00 13,7 C 80 % 1019,0 hPa 0,0 l/m 0,2 km/h N 10,3 C 13,7 C 1,2 km/h
15.09.2011 07:00 13,6 C 82 % 1019,1 hPa 0,0 l/m 0,0 km/h N 10,5 C 13,6 C 0,8 km/h
15.09.2011 08:00 14,4 C 82 % 1019,5 hPa 0,0 l/m 0,2 km/h N 11,4 C 14,4 C 1,2 km/h
15.09.2011 09:00 16,0 C 78 % 1019,7 hPa 0,0 l/m 1,0 km/h N-NO 12,2 C 16,0 C 6,0 km/h
15.09.2011 10:00 17,2 C 74 % 1019,8 hPa 0,0 l/m 1,9 km/h NW 12,4 C 17,2 C 8,1 km/h
15.09.2011 11:00 18,2 C 69 % 1019,9 hPa 0,0 l/m 0,7 km/h NW 12,4 C 18,2 C 6,0 km/h
15.09.2011 12:00 19,4 C 61 % 1019,9 hPa 0,0 l/m 1,1 km/h N-NW 11,8 C 19,4 C 6,0 km/h
15.09.2011 13:00 20,1 C 59 % 1019,8 hPa 0,0 l/m 1,3 km/h SO 11,9 C 20,1 C 7,2 km/h
15.09.2011 14:00 20,7 C 60 % 1019,4 hPa 0,0 l/m 1,1 km/h SW 12,6 C 20,7 C 6,4 km/h
15.09.2011 15:00 20,7 C 59 % 1019,0 hPa 0,0 l/m 0,4 km/h W-NW 12,5 C 20,7 C 3,6 km/h
15.09.2011 16:00 21,1 C 58 % 1018,6 hPa 0,0 l/m 1,1 km/h SW 12,4 C 21,1 C 5,6 km/h
15.09.2011 17:00 21,0 C 59 % 1018,4 hPa 0,0 l/m 0,3 km/h N 12,6 C 21,0 C 4,4 km/h
15.09.2011 18:00 20,5 C 61 % 1018,6 hPa 0,0 l/m 0,0 km/h N 12,7 C 20,5 C 1,2 km/h
15.09.2011 19:00 19,0 C 64 % 1018,9 hPa 0,0 l/m 0,0 km/h N 12,0 C 19,0 C 0,4 km/h
15.09.2011 20:00 17,0 C 70 % 1019,5 hPa 0,0 l/m 0,0 km/h N 11,5 C 17,0 C 1,2 km/h
15.09.2011 21:00 15,3 C 76 % 1020,0 hPa 0,0 l/m 0,0 km/h N 11,0 C 15,3 C 0,4 km/h
15.09.2011 22:00 14,3 C 78 % 1020,2 hPa 0,0 l/m 0,0 km/h N 10,5 C 14,3 C 1,2 km/h
15.09.2011 23:00 13,3 C 80 % 1020,4 hPa 0,0 l/m 0,0 km/h N 9,9 C 13,3 C 0,8 km/h
16.09.2011 00:00 12,4 C 82 % 1020,6 hPa 0,0 l/m 0,0 km/h N 9,3 C 12,4 C 0,0 km/h
16.09.2011 01:00 11,9 C 82 % 1020,6 hPa 0,0 l/m 0,0 km/h N 8,9 C 11,9 C 0,0 km/h
16.09.2011 02:00 11,4 C 82 % 1020,4 hPa 0,0 l/m 0,0 km/h N 8,4 C 11,4 C 0,4 km/h
16.09.2011 03:00 11,4 C 82 % 1020,3 hPa 0,0 l/m 0,0 km/h N 8,4 C 11,4 C 1,6 km/h
16.09.2011 04:00 12,1 C 82 % 1019,8 hPa 0,0 l/m 0,0 km/h N 9,1 C 12,1 C 1,2 km/h
16.09.2011 05:00 12,6 C 82 % 1019,6 hPa 0,0 l/m 0,0 km/h N 9,5 C 12,6 C 0,4 km/h
16.09.2011 06:00 12,8 C 81 % 1019,5 hPa 0,0 l/m 0,0 km/h N 9,6 C 12,8 C 0,0 km/h
16.09.2011 07:00 12,9 C 81 % 1019,8 hPa 0,0 l/m 0,0 km/h N 9,7 C 12,9 C 0,0 km/h
16.09.2011 08:00 13,3 C 80 % 1020,1 hPa 0,0 l/m 0,0 km/h N 9,9 C 13,3 C 0,0 km/h
16.09.2011 09:00 13,8 C 76 % 1020,6 hPa 0,0 l/m 0,0 km/h N 9,6 C 13,8 C 0,4 km/h
16.09.2011 10:00 14,3 C 72 % 1020,5 hPa 0,0 l/m 0,0 km/h N 9,4 C 14,3 C 1,2 km/h
16.09.2011 11:00 15,5 C 71 % 1020,3 hPa 0,0 l/m 0,0 km/h N 10,3 C 15,5 C 1,2 km/h
16.09.2011 12:00 17,4 C 64 % 1019,9 hPa 0,0 l/m 0,3 km/h N 10,6 C 17,4 C 3,6 km/h
16.09.2011 13:00 19,0 C 54 % 1019,3 hPa 0,0 l/m 0,4 km/h N 9,5 C 19,0 C 3,6 km/h
16.09.2011 14:00 19,9 C 54 % 1018,7 hPa 0,0 l/m 0,4 km/h N 10,1 C 19,9 C 3,2 km/h
16.09.2011 15:00 20,3 C 54 % 1018,0 hPa 0,0 l/m 0,5 km/h N 10,7 C 20,3 C 5,2 km/h
16.09.2011 16:00 20,8 C 54 % 1017,5 hPa 0,0 l/m 0,4 km/h N 11,1 C 20,8 C 4,0 km/h
16.09.2011 17:00 20,8 C 56 % 1017,0 hPa 0,0 l/m 0,1 km/h N 11,6 C 20,8 C 2,4 km/h
16.09.2011 18:00 20,0 C 59 % 1016,8 hPa 0,0 l/m 0,0 km/h N 11,7 C 20,0 C 0,4 km/h
16.09.2011 19:00 18,3 C 65 % 1016,9 hPa 0,0 l/m 0,0 km/h N 11,6 C 18,3 C 0,0 km/h
16.09.2011 20:00 16,2 C 72 % 1017,3 hPa 0,0 l/m 0,0 km/h N 11,2 C 16,2 C 0,4 km/h
16.09.2011 21:00 14,7 C 76 % 1017,5 hPa 0,0 l/m 0,0 km/h N 10,4 C 14,7 C 0,0 km/h
16.09.2011 22:00 13,6 C 78 % 1017,5 hPa 0,0 l/m 0,0 km/h N 9,8 C 13,6 C 0,0 km/h
16.09.2011 23:00 12,9 C 80 % 1017,3 hPa 0,0 l/m 0,0 km/h N 9,4 C 12,9 C 0,0 km/h
17.09.2011 00:00 12,3 C 81 % 1017,2 hPa 0,0 l/m 0,0 km/h N 9,0 C 12,3 C 0,0 km/h
17.09.2011 01:00 11,8 C 82 % 1017,2 hPa 0,0 l/m 0,0 km/h N 8,7 C 11,8 C 0,0 km/h
17.09.2011 02:00 11,2 C 82 % 1017,2 hPa 0,0 l/m 0,0 km/h N 8,2 C 11,2 C 0,0 km/h
17.09.2011 03:00 10,7 C 82 % 1017,0 hPa 0,0 l/m 0,0 km/h N 7,8 C 10,7 C 0,4 km/h
17.09.2011 04:00 10,5 C 82 % 1016,9 hPa 0,0 l/m 0,0 km/h N 7,5 C 10,5 C 0,0 km/h
17.09.2011 05:00 10,6 C 82 % 1017,0 hPa 0,0 l/m 0,0 km/h N 7,7 C 10,6 C 0,0 km/h
17.09.2011 06:00 11,2 C 82 % 1017,1 hPa 0,0 l/m 0,0 km/h N 8,2 C 11,2 C 0,0 km/h
17.09.2011 07:00 11,4 C 82 % 1017,6 hPa 0,0 l/m 0,0 km/h N 8,4 C 11,4 C 0,0 km/h
17.09.2011 08:00 12,4 C 81 % 1017,8 hPa 0,0 l/m 0,0 km/h N 9,2 C 12,4 C 0,0 km/h
17.09.2011 09:00 13,9 C 81 % 1017,8 hPa 0,0 l/m 0,0 km/h N 10,7 C 13,9 C 0,0 km/h
17.09.2011 10:00 16,4 C 73 % 1017,7 hPa 0,0 l/m 0,0 km/h N 11,5 C 16,4 C 0,0 km/h
17.09.2011 11:00 17,8 C 68 % 1017,6 hPa 0,0 l/m 0,2 km/h N 11,8 C 17,8 C 3,6 km/h
17.09.2011 12:00 19,6 C 66 % 1017,1 hPa 0,0 l/m 0,2 km/h N 13,1 C 19,6 C 3,2 km/h
17.09.2011 13:00 20,3 C 65 % 1016,7 hPa 0,0 l/m 0,0 km/h N 13,6 C 20,3 C 2,0 km/h
17.09.2011 14:00 20,8 C 65 % 1016,1 hPa 0,0 l/m 0,0 km/h N 14,0 C 20,8 C 2,0 km/h
17.09.2011 15:00 20,9 C 66 % 1015,5 hPa 0,0 l/m 0,0 km/h N 14,4 C 20,9 C 0,8 km/h
17.09.2011 16:00 21,8 C 63 % 1014,9 hPa 0,0 l/m 0,2 km/h N 14,3 C 21,8 C 2,4 km/h
17.09.2011 17:00 22,3 C 60 % 1014,3 hPa 0,0 l/m 0,2 km/h N 14,0 C 22,3 C 2,8 km/h
17.09.2011 18:00 21,7 C 63 % 1013,8 hPa 0,0 l/m 0,0 km/h N 14,3 C 21,7 C 0,4 km/h
17.09.2011 19:00 20,0 C 68 % 1013,4 hPa 0,0 l/m 0,0 km/h N 13,9 C 20,0 C 0,0 km/h
17.09.2011 20:00 17,6 C 75 % 1013,3 hPa 0,0 l/m 0,0 km/h N 13,0 C 17,6 C 0,4 km/h
17.09.2011 21:00 16,2 C 78 % 1013,1 hPa 0,0 l/m 0,0 km/h N 12,4 C 16,2 C 0,0 km/h
17.09.2011 22:00 15,2 C 81 % 1012,5 hPa 0,0 l/m 0,0 km/h N 11,9 C 15,2 C 0,0 km/h
17.09.2011 23:00 14,9 C 82 % 1012,0 hPa 0,0 l/m 0,0 km/h N 11,9 C 14,9 C 0,8 km/h
18.09.2011 00:00 14,9 C 82 % 1011,4 hPa 0,0 l/m 0,0 km/h N 11,8 C 14,9 C 0,0 km/h
18.09.2011 01:00 15,2 C 81 % 1010,7 hPa 0,0 l/m 0,0 km/h N 12,0 C 15,2 C 0,8 km/h
18.09.2011 02:00 15,7 C 81 % 1009,9 hPa 0,0 l/m 0,0 km/h N 12,5 C 15,7 C 0,8 km/h
18.09.2011 03:00 15,8 C 82 % 1009,2 hPa 0,0 l/m 0,0 km/h N 12,6 C 15,8 C 0,8 km/h
18.09.2011 04:00 15,5 C 82 % 1008,8 hPa 0,0 l/m 0,0 km/h N 12,5 C 15,5 C 0,4 km/h
18.09.2011 05:00 15,1 C 82 % 1008,2 hPa 0,0 l/m 0,0 km/h N 12,0 C 15,1 C 0,0 km/h
18.09.2011 06:00 14,5 C 82 % 1007,8 hPa 0,0 l/m 0,0 km/h N 11,5 C 14,5 C 0,4 km/h
18.09.2011 07:00 14,4 C 82 % 1007,5 hPa 0,0 l/m 0,0 km/h N 11,4 C 14,4 C 0,4 km/h
18.09.2011 08:00 15,1 C 82 % 1007,2 hPa 0,0 l/m 0,0 km/h N 12,0 C 15,1 C 0,8 km/h
18.09.2011 09:00 17,5 C 76 % 1006,6 hPa 0,0 l/m 1,1 km/h SO 13,1 C 17,5 C 10,9 km/h
18.09.2011 10:00 20,4 C 64 % 1006,0 hPa 0,0 l/m 3,0 km/h O-SO 13,3 C 20,4 C 17,3 km/h
18.09.2011 11:00 22,1 C 60 % 1005,4 hPa 0,0 l/m 1,5 km/h O-NO 13,8 C 22,1 C 9,7 km/h
18.09.2011 12:00 23,7 C 56 % 1004,5 hPa 0,0 l/m 1,2 km/h O-SO 14,3 C 23,7 C 7,2 km/h
18.09.2011 13:00 25,4 C 51 % 1003,6 hPa 0,0 l/m 2,4 km/h S-SO 14,6 C 25,4 C 14,9 km/h
18.09.2011 14:00 27,1 C 46 % 1002,7 hPa 0,0 l/m 4,6 km/h SO 14,4 C 27,1 C 21,7 km/h
18.09.2011 15:00 27,9 C 42 % 1002,2 hPa 0,0 l/m 5,8 km/h S-SO 13,8 C 27,8 C 27,8 km/h
18.09.2011 16:00 27,5 C 44 % 1002,1 hPa 0,0 l/m 7,8 km/h S 14,2 C 27,2 C 27,4 km/h
18.09.2011 17:00 26,1 C 50 % 1002,2 hPa 0,0 l/m 5,4 km/h S 14,7 C 26,0 C 21,3 km/h
18.09.2011 18:00 25,3 C 53 % 1003,1 hPa 0,0 l/m 4,5 km/h W 15,1 C 25,3 C 18,1 km/h
18.09.2011 19:00 20,3 C 59 % 1005,6 hPa 0,0 l/m 6,9 km/h W-NW 11,9 C 20,1 C 27,8 km/h
18.09.2011 20:00 15,8 C 66 % 1006,9 hPa 0,0 l/m 7,7 km/h SW 9,4 C 15,1 C 29,8 km/h
18.09.2011 21:00 14,5 C 68 % 1007,7 hPa 0,0 l/m 6,9 km/h W-SW 8,5 C 14,0 C 25,8 km/h
18.09.2011 22:00 13,9 C 71 % 1008,6 hPa 0,0 l/m 4,5 km/h SW 8,7 C 13,8 C 20,1 km/h
18.09.2011 23:00 13,5 C 72 % 1009,1 hPa 0,0 l/m 2,8 km/h S-SW 8,5 C 13,5 C 13,3 km/h
Min-Datum _ 17.09.11 13.09.11 18.09.11 - 12.09.11 - 17.09.11 17.09.11 12.09.11
_ Min-Zeit 04:45 13:00 15:45 - 00:00 - 04:45 04:45 00:30
Minimum _ 10,4 C 39 % 1002,0 hPa - 0,0 km/h - 7,5 C 10,4 C 0,0 km/h
Max-Datum _ 13.09.11 13.09.11 16.09.11 14.09.11 14.09.11 - 12.09.11 13.09.11 12.09.11
_ Max-Zeit 17:00 02:15 00:45 13:30 13:45 - 02:45 16:30 03:45
Maximum _ 28,7 C 82 % 1020,7 hPa 1,8 l/m 10,5 km/h
N-NW
- 17,2 C 28,6 C 33,8 km/h
S-SW
Durchschnitt _ 18,5 C 69 % 1014,8 hPa #3,4 l/m 1,4 km/h NW 12,4 C 18,4 C 6,9 km/h